createdAt,value
2023-07-24T00:00:04.512Z,3.90
2023-07-24T00:02:47.177Z,3.92
2023-07-24T00:05:30.245Z,4.05
2023-07-24T00:08:12.443Z,3.88
2023-07-24T00:10:54.921Z,3.63
2023-07-24T00:13:37.158Z,3.83
2023-07-24T00:16:19.626Z,3.90
2023-07-24T00:19:01.800Z,3.45
2023-07-24T00:21:44.215Z,4.10
2023-07-24T00:24:26.473Z,3.45
2023-07-24T00:27:09.094Z,3.90
2023-07-24T00:29:51.379Z,3.75
2023-07-24T00:32:33.932Z,3.78
2023-07-24T00:35:17.989Z,4.10
2023-07-24T00:38:00.441Z,3.67
2023-07-24T00:40:42.641Z,4.05
2023-07-24T00:43:25.130Z,3.50
2023-07-24T00:46:07.482Z,4.15
2023-07-24T00:48:50.954Z,4.40
2023-07-24T00:51:34.203Z,4.22
2023-07-24T00:54:17.996Z,4.00
2023-07-24T00:57:00.684Z,3.80
2023-07-24T00:59:43.767Z,3.95
2023-07-24T01:02:27.010Z,3.70
2023-07-24T01:05:12.226Z,4.00
2023-07-24T01:07:54.502Z,3.67
2023-07-24T01:10:36.951Z,3.50
2023-07-24T01:13:23.922Z,3.50
2023-07-24T01:16:14.199Z,3.67
2023-07-24T01:18:58.133Z,3.35
2023-07-24T01:21:59.682Z,3.80
2023-07-24T01:25:14.772Z,3.50
2023-07-24T01:27:57.174Z,3.75
2023-07-24T01:30:39.339Z,3.65
2023-07-24T01:33:22.660Z,3.78
2023-07-24T01:36:06.608Z,3.47
2023-07-24T01:38:51.711Z,3.58
2023-07-24T01:41:34.076Z,3.60
2023-07-24T01:44:16.696Z,3.67
2023-07-24T01:46:58.934Z,3.53
2023-07-24T01:49:41.446Z,3.67
2023-07-24T01:52:23.625Z,3.58
2023-07-24T01:55:06.517Z,3.63
2023-07-24T01:57:48.837Z,3.83
2023-07-24T02:00:31.398Z,4.05
2023-07-24T02:03:13.564Z,3.65
2023-07-24T02:05:56.057Z,4.18
2023-07-24T02:08:38.183Z,3.60
2023-07-24T02:11:21.310Z,3.72
2023-07-24T02:14:03.639Z,3.63
2023-07-24T02:16:46.063Z,3.85
2023-07-24T02:19:28.400Z,3.65
2023-07-24T02:22:11.883Z,4.07
2023-07-24T02:24:54.121Z,4.07
2023-07-24T02:27:36.646Z,4.13
2023-07-24T02:30:18.870Z,3.90
2023-07-24T02:33:01.301Z,3.85
2023-07-24T02:35:44.301Z,3.67
2023-07-24T02:38:26.816Z,3.67
2023-07-24T02:41:10.022Z,4.00
2023-07-24T02:43:52.675Z,3.97
2023-07-24T02:46:35.098Z,3.70
2023-07-24T02:49:18.200Z,4.07
2023-07-24T02:52:00.317Z,3.88
2023-07-24T02:54:42.764Z,3.72
2023-07-24T02:57:24.932Z,4.38
2023-07-24T03:00:09.007Z,4.68
2023-07-24T03:02:51.974Z,5.15
2023-07-24T03:05:37.743Z,4.47
2023-07-24T03:08:20.351Z,4.45
2023-07-24T03:11:06.813Z,4.30
2023-07-24T03:13:49.104Z,4.20
2023-07-24T03:16:31.832Z,4.05
2023-07-24T03:19:14.206Z,4.35
2023-07-24T03:21:56.628Z,4.60
2023-07-24T03:24:38.800Z,3.90
2023-07-24T03:27:21.330Z,4.47
2023-07-24T03:30:04.612Z,4.18
2023-07-24T03:32:47.138Z,4.22
2023-07-24T03:35:29.297Z,3.92
2023-07-24T03:38:11.756Z,4.25
2023-07-24T03:40:53.913Z,4.25
2023-07-24T03:43:36.433Z,4.95
2023-07-24T03:46:18.605Z,4.43
2023-07-24T03:49:01.154Z,4.40
2023-07-24T03:51:43.292Z,4.13
2023-07-24T03:54:25.755Z,4.43
2023-07-24T03:57:07.999Z,4.20
2023-07-24T03:59:50.428Z,4.80
2023-07-24T04:02:32.754Z,4.13
2023-07-24T04:05:15.306Z,4.22
2023-07-24T04:07:57.550Z,4.78
2023-07-24T04:10:40.012Z,4.50
2023-07-24T04:13:22.216Z,5.30
2023-07-24T04:16:05.128Z,4.03
2023-07-24T04:18:47.390Z,4.00
2023-07-24T04:21:29.916Z,4.25
2023-07-24T04:24:12.121Z,4.00
2023-07-24T04:26:54.560Z,3.90
2023-07-24T04:29:36.748Z,4.85
2023-07-24T04:32:19.176Z,4.03
2023-07-24T04:35:01.478Z,4.50
2023-07-24T04:37:44.440Z,4.20
2023-07-24T04:40:26.660Z,4.35
2023-07-24T04:43:09.147Z,4.50
2023-07-24T04:45:51.474Z,4.20
2023-07-24T04:48:33.930Z,4.30
2023-07-24T04:51:16.134Z,4.07
2023-07-24T04:53:58.882Z,4.55
2023-07-24T04:56:41.142Z,4.35
2023-07-24T04:59:24.984Z,4.47
2023-07-24T05:02:07.283Z,3.70
2023-07-24T05:04:49.798Z,4.15
2023-07-24T05:07:31.978Z,4.25
2023-07-24T05:10:14.713Z,3.75
2023-07-24T05:12:57.924Z,4.20
2023-07-24T05:15:40.385Z,4.53
2023-07-24T05:18:22.613Z,3.78
2023-07-24T05:21:05.075Z,4.07
2023-07-24T05:23:47.238Z,4.05
2023-07-24T05:26:29.978Z,4.63
2023-07-24T05:29:12.281Z,3.78
2023-07-24T05:31:54.759Z,3.53
2023-07-24T05:34:37.239Z,3.88
2023-07-24T05:37:19.817Z,3.58
2023-07-24T05:40:02.061Z,3.50
2023-07-24T05:42:44.759Z,3.67
2023-07-24T05:45:28.443Z,4.38
2023-07-24T05:48:10.920Z,3.70
2023-07-24T05:50:53.514Z,4.10
2023-07-24T05:53:36.093Z,3.72
2023-07-24T05:56:18.375Z,3.00
2023-07-24T05:59:01.018Z,3.85
2023-07-24T06:01:43.322Z,3.00
2023-07-24T06:04:26.034Z,3.22
2023-07-24T06:07:08.306Z,2.97
2023-07-24T06:09:51.238Z,3.13
2023-07-24T06:12:33.626Z,3.50
2023-07-24T06:15:16.308Z,3.42
2023-07-24T06:17:58.623Z,3.05
2023-07-24T06:20:41.536Z,2.47
2023-07-24T06:23:23.923Z,2.67
2023-07-24T06:26:06.666Z,2.88
2023-07-24T06:28:48.911Z,2.70
2023-07-24T06:31:31.473Z,3.00
2023-07-24T06:34:13.759Z,2.90
2023-07-24T06:37:01.349Z,2.58
2023-07-24T06:42:34.471Z,4.03
2023-07-24T06:45:16.810Z,3.40
2023-07-24T06:47:59.449Z,3.90
2023-07-24T06:50:41.882Z,3.45
2023-07-24T06:53:24.593Z,2.65
2023-07-24T06:56:07.125Z,2.70
2023-07-24T06:58:49.716Z,2.00
2023-07-24T07:01:32.211Z,2.22
2023-07-24T07:04:14.854Z,1.90
2023-07-24T07:06:57.111Z,2.20
2023-07-24T07:09:39.718Z,2.17
2023-07-24T07:12:22.516Z,2.58
2023-07-24T07:15:05.584Z,2.40
2023-07-24T07:17:48.054Z,2.38
2023-07-24T07:20:30.650Z,2.20
2023-07-24T07:23:12.917Z,2.63
2023-07-24T07:25:55.497Z,2.28
2023-07-24T07:28:38.783Z,2.35
2023-07-24T07:31:21.657Z,2.35
2023-07-24T07:34:03.980Z,2.58
2023-07-24T07:36:46.639Z,2.75
2023-07-24T07:39:28.937Z,2.55
2023-07-24T07:42:18.208Z,2.50
2023-07-24T07:45:01.424Z,2.33
2023-07-24T07:47:44.117Z,2.15
2023-07-24T07:50:26.586Z,2.22
2023-07-24T07:53:09.193Z,3.05
2023-07-24T07:55:58.865Z,2.35
2023-07-24T07:58:41.443Z,2.50
2023-07-24T08:01:23.832Z,2.92
2023-07-24T08:04:06.626Z,2.35
2023-07-24T08:06:48.866Z,2.50
2023-07-24T08:09:31.334Z,2.40
2023-07-24T08:12:13.638Z,2.50
2023-07-24T08:14:57.405Z,2.50
2023-07-24T08:17:39.869Z,2.70
2023-07-24T08:20:22.598Z,2.47
2023-07-24T08:23:05.451Z,2.42
2023-07-24T08:25:55.486Z,2.67
2023-07-24T08:28:37.969Z,2.50
2023-07-24T08:31:20.675Z,2.75
2023-07-24T08:34:02.915Z,2.80
2023-07-24T08:36:45.569Z,2.47
2023-07-24T08:39:27.788Z,2.80
2023-07-24T08:42:12.425Z,2.60
2023-07-24T08:44:55.562Z,2.88
2023-07-24T08:47:39.439Z,2.88
2023-07-24T08:50:22.877Z,3.15
2023-07-24T08:53:05.693Z,2.88
2023-07-24T08:55:52.857Z,3.00
2023-07-24T08:58:36.247Z,2.90
2023-07-24T09:01:18.522Z,3.03
2023-07-24T09:04:01.196Z,3.20
2023-07-24T09:06:43.946Z,3.05
2023-07-24T09:09:32.458Z,2.63
2023-07-24T09:12:17.098Z,3.47
2023-07-24T09:15:08.072Z,3.95
2023-07-24T09:17:54.845Z,3.20
2023-07-24T09:20:43.446Z,2.83
2023-07-24T09:23:29.642Z,3.42
2023-07-24T09:26:12.230Z,2.85
2023-07-24T09:28:55.464Z,3.00
2023-07-24T09:31:38.057Z,2.80
2023-07-24T09:34:20.568Z,3.15
2023-07-24T09:37:04.262Z,3.17
2023-07-24T09:39:47.903Z,3.17
2023-07-24T09:42:35.065Z,2.80
2023-07-24T09:45:17.385Z,3.03
2023-07-24T09:48:06.301Z,3.00
2023-07-24T09:50:58.037Z,3.05
2023-07-24T09:54:27.568Z,2.90
2023-07-24T09:57:19.880Z,3.50
2023-07-24T10:00:04.994Z,3.50
2023-07-24T10:02:48.638Z,4.00
2023-07-24T10:05:31.459Z,3.60
2023-07-24T10:08:17.938Z,3.10
2023-07-24T10:11:00.937Z,3.58
2023-07-24T10:13:44.315Z,3.58
2023-07-24T10:16:26.976Z,3.50
2023-07-24T10:19:17.338Z,3.53
2023-07-24T10:22:00.061Z,3.83
2023-07-24T10:24:42.995Z,3.60
2023-07-24T10:27:26.745Z,3.30
2023-07-24T10:30:22.736Z,3.58
2023-07-24T10:33:18.541Z,3.58
2023-07-24T10:36:11.034Z,3.45
2023-07-24T10:38:55.689Z,3.30
2023-07-24T10:41:39.084Z,3.33
2023-07-24T10:44:32.881Z,3.72
2023-07-24T10:47:15.241Z,3.20
2023-07-24T10:49:59.127Z,3.40
2023-07-24T10:52:42.037Z,3.60
2023-07-24T10:55:28.481Z,3.45
2023-07-24T10:58:12.381Z,3.17
2023-07-24T11:00:57.202Z,3.33
2023-07-24T11:03:42.229Z,3.30
2023-07-24T11:09:07.575Z,3.00
2023-07-24T11:11:53.082Z,3.33
2023-07-24T11:14:35.485Z,3.03
2023-07-24T11:17:18.808Z,3.22
2023-07-24T11:20:16.201Z,3.30
2023-07-24T11:22:59.921Z,3.30
2023-07-24T11:25:42.689Z,3.03
2023-07-24T11:28:28.512Z,3.00
2023-07-24T11:31:13.116Z,3.20
2023-07-24T11:33:55.825Z,3.28
2023-07-24T11:36:38.251Z,3.38
2023-07-24T11:39:27.065Z,3.25
2023-07-24T11:42:09.772Z,4.25
2023-07-24T11:44:52.312Z,3.50
2023-07-24T11:47:51.988Z,3.72
2023-07-24T11:50:46.336Z,3.17
2023-07-24T11:53:30.098Z,3.38
2023-07-24T11:56:17.198Z,3.03
2023-07-24T11:59:09.923Z,3.20
2023-07-24T12:01:52.988Z,3.50
2023-07-24T12:04:35.304Z,4.15
2023-07-24T12:07:18.082Z,3.78
2023-07-24T12:10:02.406Z,3.80
2023-07-24T12:12:47.220Z,3.20
2023-07-24T12:15:30.176Z,3.60
2023-07-24T12:18:12.998Z,3.85
2023-07-24T12:20:55.792Z,3.90
2023-07-24T12:23:38.585Z,4.15
2023-07-24T12:26:21.508Z,3.85
2023-07-24T12:29:04.171Z,4.65
2023-07-24T12:31:46.553Z,3.97
2023-07-24T12:34:29.136Z,4.35
2023-07-24T12:37:11.594Z,4.15
2023-07-24T12:39:54.249Z,4.13
2023-07-24T12:42:37.083Z,4.28
2023-07-24T12:45:20.096Z,4.13
2023-07-24T12:48:03.011Z,4.57
2023-07-24T12:50:46.020Z,4.22
2023-07-24T12:53:29.820Z,4.53
2023-07-24T12:56:18.234Z,4.13
2023-07-24T12:59:02.762Z,4.72
2023-07-24T13:01:46.333Z,4.90
2023-07-24T13:04:28.689Z,4.80
2023-07-24T13:07:11.739Z,4.38
2023-07-24T13:09:54.079Z,4.55
2023-07-24T13:12:37.233Z,4.07
2023-07-24T13:15:19.606Z,4.35
2023-07-24T13:18:10.739Z,4.88
2023-07-24T13:21:00.590Z,5.10
2023-07-24T13:23:44.034Z,4.78
2023-07-24T13:26:26.444Z,4.75
2023-07-24T13:29:09.219Z,5.22
2023-07-24T13:31:53.411Z,4.45
2023-07-24T13:34:36.166Z,4.77
2023-07-24T13:37:18.540Z,4.43
2023-07-24T13:40:01.213Z,4.72
2023-07-24T13:42:43.601Z,5.07
2023-07-24T13:45:26.368Z,4.40
2023-07-24T13:48:08.853Z,5.00
2023-07-24T13:50:54.452Z,4.40
2023-07-24T13:53:37.052Z,4.90
2023-07-24T13:56:20.151Z,4.72
2023-07-24T13:59:02.718Z,5.05
2023-07-24T14:01:45.994Z,4.50
2023-07-24T14:04:29.435Z,5.22
2023-07-24T14:07:14.146Z,5.22
2023-07-24T14:09:56.805Z,5.63
2023-07-24T14:12:40.043Z,5.10
2023-07-24T14:15:22.600Z,5.18
2023-07-24T14:18:05.282Z,5.60
2023-07-24T14:20:48.446Z,6.30
2023-07-24T14:23:31.915Z,5.22
2023-07-24T14:26:14.213Z,5.32
2023-07-24T14:28:58.059Z,5.28
2023-07-24T14:31:40.606Z,5.25
2023-07-24T14:34:23.214Z,5.50
2023-07-24T14:37:06.173Z,5.55
2023-07-24T14:39:48.690Z,5.70
2023-07-24T14:42:30.869Z,5.63
2023-07-24T14:45:13.400Z,6.07
2023-07-24T14:47:55.599Z,5.65
2023-07-24T14:50:38.392Z,5.70
2023-07-24T14:53:20.767Z,6.15
2023-07-24T14:56:03.330Z,6.55
2023-07-24T14:58:46.627Z,6.13
2023-07-24T15:01:30.280Z,6.63
2023-07-24T15:04:15.133Z,6.30
2023-07-24T15:06:58.018Z,6.18
2023-07-24T15:09:40.451Z,6.22
2023-07-24T15:12:24.333Z,5.78
2023-07-24T15:15:07.411Z,6.45
2023-07-24T15:17:50.074Z,6.00
2023-07-24T15:20:33.652Z,6.57
2023-07-24T15:23:16.296Z,6.50
2023-07-24T15:25:59.410Z,7.30
2023-07-24T15:28:42.714Z,6.32
2023-07-24T15:31:24.936Z,6.43
2023-07-24T15:34:07.699Z,6.82
2023-07-24T15:36:49.898Z,6.28
2023-07-24T15:39:32.414Z,6.18
2023-07-24T15:42:14.522Z,6.57
2023-07-24T15:44:56.982Z,7.25
2023-07-24T15:47:39.163Z,6.18
2023-07-24T15:50:21.612Z,6.68
2023-07-24T15:53:03.831Z,6.97
2023-07-24T15:55:46.219Z,6.57
2023-07-24T15:58:28.403Z,6.28
2023-07-24T16:01:11.345Z,7.78
2023-07-24T16:03:53.570Z,6.88
2023-07-24T16:06:36.066Z,6.53
2023-07-24T16:09:18.589Z,6.57
2023-07-24T16:12:01.025Z,6.05
2023-07-24T16:14:43.405Z,6.43
2023-07-24T16:17:25.985Z,6.85
2023-07-24T16:20:09.059Z,6.65
2023-07-24T16:22:52.262Z,6.55
2023-07-24T16:25:34.702Z,6.32
2023-07-24T16:28:17.331Z,6.25
2023-07-24T16:31:00.151Z,5.88
2023-07-24T16:33:42.685Z,6.32
2023-07-24T16:36:25.271Z,6.50
2023-07-24T16:39:07.879Z,6.43
2023-07-24T16:41:50.931Z,6.72
2023-07-24T16:44:37.365Z,6.55
2023-07-24T16:47:20.840Z,5.97
2023-07-24T16:50:04.240Z,6.18
2023-07-24T16:52:46.590Z,6.80
2023-07-24T16:55:30.385Z,6.90
2023-07-24T16:58:13.350Z,6.63
2023-07-24T17:00:56.103Z,6.95
2023-07-24T17:03:38.542Z,6.95
2023-07-24T17:06:21.333Z,6.30
2023-07-24T17:09:03.888Z,7.07
2023-07-24T17:11:46.670Z,7.28
2023-07-24T17:14:29.106Z,7.32
2023-07-24T17:17:11.760Z,6.80
2023-07-24T17:19:54.024Z,6.90
2023-07-24T17:22:37.323Z,7.07
2023-07-24T17:25:21.189Z,6.68
2023-07-24T17:28:04.791Z,6.60
2023-07-24T17:30:47.727Z,6.82
2023-07-24T17:33:30.686Z,8.65
2023-07-24T17:36:13.814Z,8.20
2023-07-24T17:38:57.667Z,7.85
2023-07-24T17:41:40.398Z,7.95
2023-07-24T17:44:23.298Z,7.40
2023-07-24T17:47:05.661Z,7.45
2023-07-24T17:50:01.193Z,7.15
2023-07-24T17:52:48.868Z,7.43
2023-07-24T17:55:32.197Z,7.45
2023-07-24T17:58:14.717Z,7.50
2023-07-24T18:00:57.760Z,6.55
2023-07-24T18:03:40.089Z,6.60
2023-07-24T18:06:22.665Z,6.70
2023-07-24T18:09:04.976Z,7.55
2023-07-24T18:11:47.482Z,7.13
2023-07-24T18:14:29.987Z,6.80
2023-07-24T18:17:13.300Z,6.60
2023-07-24T18:19:55.587Z,6.57
2023-07-24T18:22:38.145Z,7.38
2023-07-24T18:25:20.568Z,6.93
2023-07-24T18:28:03.137Z,6.32
2023-07-24T18:30:45.767Z,6.57
2023-07-24T18:33:28.531Z,6.25
2023-07-24T18:36:11.306Z,6.57
2023-07-24T18:38:53.940Z,7.03
2023-07-24T18:41:36.121Z,6.40
2023-07-24T18:44:18.968Z,5.72
2023-07-24T18:47:01.841Z,6.32
2023-07-24T18:49:44.663Z,6.25
2023-07-24T18:52:30.117Z,5.88
2023-07-24T18:57:56.188Z,5.97
2023-07-24T19:03:24.090Z,5.63
2023-07-24T19:06:08.089Z,5.80
2023-07-24T19:08:50.904Z,5.68
2023-07-24T19:11:34.104Z,5.70
2023-07-24T19:14:16.650Z,5.57
2023-07-24T19:16:59.603Z,5.55
2023-07-24T19:19:42.679Z,5.85
2023-07-24T19:22:25.316Z,5.13
2023-07-24T19:25:08.104Z,5.45
2023-07-24T19:27:51.125Z,5.22
2023-07-24T19:30:33.488Z,5.07
2023-07-24T19:33:16.843Z,5.03
2023-07-24T19:36:02.014Z,5.00
2023-07-24T19:38:44.815Z,5.25
2023-07-24T19:41:27.289Z,5.57
2023-07-24T19:44:10.455Z,4.80
2023-07-24T19:46:53.198Z,4.82
2023-07-24T19:49:40.687Z,5.95
2023-07-24T19:52:23.901Z,5.20
2023-07-24T19:55:08.348Z,5.20
2023-07-24T19:57:52.239Z,4.47
2023-07-24T20:00:35.879Z,4.85
2023-07-24T20:03:19.645Z,5.30
2023-07-24T20:06:07.231Z,5.38
2023-07-24T20:08:50.016Z,5.22
2023-07-24T20:11:32.838Z,5.72
2023-07-24T20:14:15.261Z,6.03
2023-07-24T20:16:58.162Z,5.60
2023-07-24T20:19:40.389Z,4.93
2023-07-24T20:22:22.982Z,5.38
2023-07-24T20:25:05.520Z,7.63
2023-07-24T20:27:48.127Z,5.43
2023-07-24T20:30:30.386Z,5.72
2023-07-24T20:33:13.096Z,5.78
2023-07-24T20:35:55.316Z,5.80
2023-07-24T20:38:38.407Z,6.28
2023-07-24T20:41:20.573Z,5.75
2023-07-24T20:44:06.277Z,6.35
2023-07-24T20:49:31.098Z,5.93
2023-07-24T20:52:13.556Z,7.15
2023-07-24T20:54:55.977Z,6.40
2023-07-24T20:57:38.172Z,6.68
2023-07-24T21:00:21.312Z,6.40
2023-07-24T21:03:04.690Z,7.60
2023-07-24T21:05:47.424Z,6.82
2023-07-24T21:08:30.368Z,6.70
2023-07-24T21:11:12.913Z,7.38
2023-07-24T21:13:55.044Z,6.68
2023-07-24T21:16:39.337Z,6.85
2023-07-24T21:19:21.517Z,7.03
2023-07-24T21:22:04.145Z,6.63
2023-07-24T21:24:46.349Z,6.47
2023-07-24T21:27:28.806Z,7.47
2023-07-24T21:30:11.632Z,6.40
2023-07-24T21:32:54.160Z,6.85
2023-07-24T21:35:36.425Z,6.80
2023-07-24T21:38:18.815Z,6.97
2023-07-24T21:41:01.003Z,7.25
2023-07-24T21:43:43.467Z,7.25
2023-07-24T21:46:25.673Z,7.15
2023-07-24T21:49:08.251Z,7.57
2023-07-24T21:51:50.499Z,7.70
2023-07-24T21:54:33.465Z,7.35
2023-07-24T21:57:16.654Z,7.32
2023-07-24T21:59:59.159Z,7.38
2023-07-24T22:02:41.397Z,7.55
2023-07-24T22:05:23.920Z,7.75
2023-07-24T22:08:06.133Z,7.50
2023-07-24T22:10:48.547Z,7.55
2023-07-24T22:13:30.739Z,7.50
2023-07-24T22:16:13.924Z,7.45
2023-07-24T22:18:56.062Z,7.70
2023-07-24T22:21:38.515Z,7.85
2023-07-24T22:24:21.964Z,7.38
2023-07-24T22:27:04.789Z,7.70
2023-07-24T22:29:46.960Z,8.27
2023-07-24T22:32:29.410Z,7.85
2023-07-24T22:35:12.141Z,8.25
2023-07-24T22:37:54.642Z,8.88
2023-07-24T22:40:36.834Z,8.25
2023-07-24T22:43:19.698Z,8.15
2023-07-24T22:46:01.997Z,8.40
2023-07-24T22:48:44.557Z,8.55
2023-07-24T22:51:26.739Z,7.47
2023-07-24T22:54:09.138Z,8.25
2023-07-24T22:56:51.242Z,8.65
2023-07-24T22:59:33.682Z,8.23
2023-07-24T23:02:15.850Z,8.18
2023-07-24T23:04:58.366Z,9.18
2023-07-24T23:07:40.785Z,8.43
2023-07-24T23:10:23.322Z,9.13
2023-07-24T23:13:05.458Z,8.73
2023-07-24T23:15:47.884Z,8.30
2023-07-24T23:18:30.365Z,9.68
2023-07-24T23:21:12.807Z,9.23
2023-07-24T23:23:55.005Z,8.65
2023-07-24T23:26:37.499Z,9.00
2023-07-24T23:29:19.668Z,8.90
2023-07-24T23:32:02.113Z,8.80
2023-07-24T23:34:44.294Z,8.90
2023-07-24T23:37:26.747Z,8.90
2023-07-24T23:40:09.398Z,9.10
2023-07-24T23:42:51.882Z,9.35
2023-07-24T23:45:35.281Z,10.45
2023-07-24T23:48:17.707Z,9.52
2023-07-24T23:50:59.866Z,9.48
2023-07-24T23:53:42.794Z,8.70
2023-07-24T23:56:25.057Z,9.52
2023-07-24T23:59:07.445Z,9.05
